sensor_id;sensor_type;location;lat;lon;timestamp;P1;durP1;ratioP1;P2;durP2;ratioP2
17773;SDS011;9011;33.236;-97.118;2022-10-12T00:00:21;5.97;;;4.03;;
17773;SDS011;9011;33.236;-97.118;2022-10-12T00:02:50;6.45;;;3.67;;
17773;SDS011;9011;33.236;-97.118;2022-10-12T00:05:20;4.60;;;3.33;;
17773;SDS011;9011;33.236;-97.118;2022-10-12T00:07:48;5.43;;;3.80;;
17773;SDS011;9011;33.236;-97.118;2022-10-12T00:10:17;3.70;;;3.35;;
17773;SDS011;9011;33.236;-97.118;2022-10-12T00:12:45;4.78;;;3.10;;
17773;SDS011;9011;33.236;-97.118;2022-10-12T00:15:14;4.30;;;3.22;;
17773;SDS011;9011;33.236;-97.118;2022-10-12T00:17:43;4.70;;;3.45;;
17773;SDS011;9011;33.236;-97.118;2022-10-12T00:20:11;4.97;;;3.40;;
17773;SDS011;9011;33.236;-97.118;2022-10-12T00:22:41;5.82;;;3.85;;
17773;SDS011;9011;33.236;-97.118;2022-10-12T00:25:10;4.88;;;3.63;;
17773;SDS011;9011;33.236;-97.118;2022-10-12T00:27:38;6.30;;;3.45;;
17773;SDS011;9011;33.236;-97.118;2022-10-12T00:30:07;3.72;;;3.40;;
17773;SDS011;9011;33.236;-97.118;2022-10-12T00:32:37;3.22;;;2.92;;
17773;SDS011;9011;33.236;-97.118;2022-10-12T00:35:05;4.30;;;3.13;;
17773;SDS011;9011;33.236;-97.118;2022-10-12T00:37:34;4.10;;;3.25;;
17773;SDS011;9011;33.236;-97.118;2022-10-12T00:40:04;3.75;;;3.45;;
17773;SDS011;9011;33.236;-97.118;2022-10-12T00:42:34;6.22;;;3.63;;
17773;SDS011;9011;33.236;-97.118;2022-10-12T00:45:02;4.82;;;3.60;;
17773;SDS011;9011;33.236;-97.118;2022-10-12T00:47:32;5.55;;;3.33;;
17773;SDS011;9011;33.236;-97.118;2022-10-12T00:50:04;5.05;;;3.38;;
17773;SDS011;9011;33.236;-97.118;2022-10-12T00:52:37;3.72;;;3.30;;
17773;SDS011;9011;33.236;-97.118;2022-10-12T00:55:12;3.63;;;3.33;;
17773;SDS011;9011;33.236;-97.118;2022-10-12T00:57:44;4.32;;;3.35;;
17773;SDS011;9011;33.236;-97.118;2022-10-12T01:00:13;4.72;;;3.05;;
17773;SDS011;9011;33.236;-97.118;2022-10-12T01:02:42;5.00;;;3.50;;
17773;SDS011;9011;33.236;-97.118;2022-10-12T01:05:13;3.40;;;3.10;;
17773;SDS011;9011;33.236;-97.118;2022-10-12T01:07:42;4.00;;;3.47;;
17773;SDS011;9011;33.236;-97.118;2022-10-12T01:10:12;4.32;;;3.45;;
17773;SDS011;9011;33.236;-97.118;2022-10-12T01:12:41;4.20;;;3.42;;
17773;SDS011;9011;33.236;-97.118;2022-10-12T01:15:11;5.70;;;3.47;;
17773;SDS011;9011;33.236;-97.118;2022-10-12T01:17:42;3.90;;;3.17;;
17773;SDS011;9011;33.236;-97.118;2022-10-12T01:20:24;3.50;;;3.20;;
17773;SDS011;9011;33.236;-97.118;2022-10-12T01:23:09;4.88;;;3.60;;
17773;SDS011;9011;33.236;-97.118;2022-10-12T01:26:01;4.28;;;3.17;;
17773;SDS011;9011;33.236;-97.118;2022-10-12T01:28:54;4.47;;;3.38;;
17773;SDS011;9011;33.236;-97.118;2022-10-12T01:31:32;4.05;;;3.05;;
17773;SDS011;9011;33.236;-97.118;2022-10-12T01:34:08;3.55;;;3.25;;
17773;SDS011;9011;33.236;-97.118;2022-10-12T01:36:43;4.07;;;3.33;;
17773;SDS011;9011;33.236;-97.118;2022-10-12T01:39:19;4.75;;;3.50;;
17773;SDS011;9011;33.236;-97.118;2022-10-12T01:41:52;3.90;;;3.28;;
17773;SDS011;9011;33.236;-97.118;2022-10-12T01:44:23;4.57;;;3.40;;
17773;SDS011;9011;33.236;-97.118;2022-10-12T01:46:56;4.00;;;3.60;;
17773;SDS011;9011;33.236;-97.118;2022-10-12T01:49:25;4.63;;;3.42;;
17773;SDS011;9011;33.236;-97.118;2022-10-12T01:57:49;3.45;;;2.97;;
17773;SDS011;9011;33.236;-97.118;2022-10-12T02:00:25;4.45;;;2.90;;
17773;SDS011;9011;33.236;-97.118;2022-10-12T02:02:56;3.58;;;3.08;;
17773;SDS011;9011;33.236;-97.118;2022-10-12T02:05:32;3.25;;;2.88;;
17773;SDS011;9011;33.236;-97.118;2022-10-12T02:08:05;4.65;;;3.15;;
17773;SDS011;9011;33.236;-97.118;2022-10-12T02:10:41;3.38;;;3.08;;
17773;SDS011;9011;33.236;-97.118;2022-10-12T02:13:14;3.97;;;2.80;;
17773;SDS011;9011;33.236;-97.118;2022-10-12T02:15:45;5.03;;;3.72;;
17773;SDS011;9011;33.236;-97.118;2022-10-12T02:18:17;3.95;;;2.70;;
17773;SDS011;9011;33.236;-97.118;2022-10-12T02:20:47;3.53;;;3.22;;
17773;SDS011;9011;33.236;-97.118;2022-10-12T02:23:20;6.18;;;2.97;;
17773;SDS011;9011;33.236;-97.118;2022-10-12T02:25:51;3.35;;;2.88;;
17773;SDS011;9011;33.236;-97.118;2022-10-12T02:28:21;5.95;;;3.20;;
17773;SDS011;9011;33.236;-97.118;2022-10-12T02:30:53;4.28;;;3.10;;
17773;SDS011;9011;33.236;-97.118;2022-10-12T02:33:34;5.70;;;3.08;;
17773;SDS011;9011;33.236;-97.118;2022-10-12T02:36:07;3.53;;;2.90;;
17773;SDS011;9011;33.236;-97.118;2022-10-12T02:38:38;4.57;;;2.90;;
17773;SDS011;9011;33.236;-97.118;2022-10-12T02:41:13;4.22;;;3.28;;
17773;SDS011;9011;33.236;-97.118;2022-10-12T02:43:46;4.63;;;3.15;;
17773;SDS011;9011;33.236;-97.118;2022-10-12T02:46:18;3.70;;;3.00;;
17773;SDS011;9011;33.236;-97.118;2022-10-12T02:48:51;4.07;;;3.03;;
17773;SDS011;9011;33.236;-97.118;2022-10-12T02:51:23;5.07;;;3.40;;
17773;SDS011;9011;33.236;-97.118;2022-10-12T02:53:54;4.15;;;3.17;;
17773;SDS011;9011;33.236;-97.118;2022-10-12T02:56:23;3.33;;;2.90;;
17773;SDS011;9011;33.236;-97.118;2022-10-12T02:58:51;3.72;;;3.10;;
17773;SDS011;9011;33.236;-97.118;2022-10-12T03:01:20;3.83;;;2.92;;
17773;SDS011;9011;33.236;-97.118;2022-10-12T03:03:49;4.95;;;3.60;;
17773;SDS011;9011;33.236;-97.118;2022-10-12T03:06:18;3.60;;;3.20;;
17773;SDS011;9011;33.236;-97.118;2022-10-12T03:08:47;5.15;;;2.90;;
17773;SDS011;9011;33.236;-97.118;2022-10-12T03:11:15;5.43;;;3.30;;
17773;SDS011;9011;33.236;-97.118;2022-10-12T03:13:44;3.67;;;2.95;;
17773;SDS011;9011;33.236;-97.118;2022-10-12T03:16:13;6.28;;;3.05;;
17773;SDS011;9011;33.236;-97.118;2022-10-12T03:18:41;4.57;;;3.60;;
17773;SDS011;9011;33.236;-97.118;2022-10-12T03:21:11;4.93;;;2.95;;
17773;SDS011;9011;33.236;-97.118;2022-10-12T03:23:43;5.07;;;3.40;;
17773;SDS011;9011;33.236;-97.118;2022-10-12T03:26:11;5.03;;;3.03;;
17773;SDS011;9011;33.236;-97.118;2022-10-12T03:28:40;3.30;;;2.85;;
17773;SDS011;9011;33.236;-97.118;2022-10-12T03:31:08;4.43;;;2.85;;
17773;SDS011;9011;33.236;-97.118;2022-10-12T03:33:37;5.38;;;3.30;;
17773;SDS011;9011;33.236;-97.118;2022-10-12T03:36:05;3.60;;;2.97;;
17773;SDS011;9011;33.236;-97.118;2022-10-12T03:38:37;4.50;;;3.15;;
17773;SDS011;9011;33.236;-97.118;2022-10-12T03:41:05;4.53;;;3.35;;
17773;SDS011;9011;33.236;-97.118;2022-10-12T03:43:34;6.07;;;3.40;;
17773;SDS011;9011;33.236;-97.118;2022-10-12T03:46:02;4.93;;;3.40;;
17773;SDS011;9011;33.236;-97.118;2022-10-12T03:48:31;4.10;;;3.05;;
17773;SDS011;9011;33.236;-97.118;2022-10-12T03:50:59;5.05;;;2.75;;
17773;SDS011;9011;33.236;-97.118;2022-10-12T03:53:27;4.47;;;2.85;;
17773;SDS011;9011;33.236;-97.118;2022-10-12T03:55:57;4.53;;;2.70;;
17773;SDS011;9011;33.236;-97.118;2022-10-12T03:58:26;3.22;;;2.67;;
17773;SDS011;9011;33.236;-97.118;2022-10-12T04:00:54;4.72;;;2.90;;
17773;SDS011;9011;33.236;-97.118;2022-10-12T04:03:22;3.50;;;2.63;;
17773;SDS011;9011;33.236;-97.118;2022-10-12T04:05:51;3.28;;;2.70;;
17773;SDS011;9011;33.236;-97.118;2022-10-12T04:08:20;6.85;;;3.13;;
17773;SDS011;9011;33.236;-97.118;2022-10-12T04:10:49;3.83;;;2.83;;
17773;SDS011;9011;33.236;-97.118;2022-10-12T04:13:19;3.00;;;2.67;;
17773;SDS011;9011;33.236;-97.118;2022-10-12T04:15:47;4.28;;;2.67;;
17773;SDS011;9011;33.236;-97.118;2022-10-12T04:18:15;3.55;;;2.90;;
17773;SDS011;9011;33.236;-97.118;2022-10-12T04:20:46;3.17;;;2.83;;
17773;SDS011;9011;33.236;-97.118;2022-10-12T04:23:14;3.72;;;2.45;;
17773;SDS011;9011;33.236;-97.118;2022-10-12T04:25:43;4.60;;;3.05;;
17773;SDS011;9011;33.236;-97.118;2022-10-12T04:28:11;3.42;;;2.72;;
17773;SDS011;9011;33.236;-97.118;2022-10-12T04:30:41;9.05;;;2.97;;
17773;SDS011;9011;33.236;-97.118;2022-10-12T04:33:10;5.13;;;3.03;;
17773;SDS011;9011;33.236;-97.118;2022-10-12T04:35:39;4.63;;;2.80;;
17773;SDS011;9011;33.236;-97.118;2022-10-12T04:38:07;4.20;;;2.70;;
17773;SDS011;9011;33.236;-97.118;2022-10-12T04:40:39;2.72;;;2.40;;
17773;SDS011;9011;33.236;-97.118;2022-10-12T04:43:07;5.55;;;2.72;;
17773;SDS011;9011;33.236;-97.118;2022-10-12T04:45:35;2.75;;;2.47;;
17773;SDS011;9011;33.236;-97.118;2022-10-12T04:48:05;4.05;;;2.50;;
17773;SDS011;9011;33.236;-97.118;2022-10-12T04:50:34;5.93;;;2.70;;
17773;SDS011;9011;33.236;-97.118;2022-10-12T04:53:03;3.15;;;2.60;;
17773;SDS011;9011;33.236;-97.118;2022-10-12T04:55:31;2.60;;;2.33;;
17773;SDS011;9011;33.236;-97.118;2022-10-12T04:57:59;4.43;;;3.00;;
17773;SDS011;9011;33.236;-97.118;2022-10-12T05:00:28;5.55;;;2.50;;
17773;SDS011;9011;33.236;-97.118;2022-10-12T05:02:56;5.93;;;2.80;;
17773;SDS011;9011;33.236;-97.118;2022-10-12T05:05:26;5.75;;;3.13;;
17773;SDS011;9011;33.236;-97.118;2022-10-12T05:07:55;4.00;;;2.55;;
17773;SDS011;9011;33.236;-97.118;2022-10-12T05:10:23;6.28;;;2.95;;
17773;SDS011;9011;33.236;-97.118;2022-10-12T05:12:51;5.40;;;3.25;;
17773;SDS011;9011;33.236;-97.118;2022-10-12T05:15:19;4.13;;;2.65;;
17773;SDS011;9011;33.236;-97.118;2022-10-12T05:17:48;3.53;;;2.40;;
17773;SDS011;9011;33.236;-97.118;2022-10-12T05:20:16;3.13;;;2.40;;
17773;SDS011;9011;33.236;-97.118;2022-10-12T05:22:46;6.18;;;3.08;;
17773;SDS011;9011;33.236;-97.118;2022-10-12T05:25:15;5.50;;;2.75;;
17773;SDS011;9011;33.236;-97.118;2022-10-12T05:27:44;5.50;;;2.55;;
17773;SDS011;9011;33.236;-97.118;2022-10-12T05:30:12;3.67;;;2.72;;
17773;SDS011;9011;33.236;-97.118;2022-10-12T05:32:40;3.33;;;2.60;;
17773;SDS011;9011;33.236;-97.118;2022-10-12T05:35:09;3.20;;;2.75;;
17773;SDS011;9011;33.236;-97.118;2022-10-12T05:37:38;7.40;;;2.90;;
17773;SDS011;9011;33.236;-97.118;2022-10-12T05:40:08;5.07;;;2.55;;
17773;SDS011;9011;33.236;-97.118;2022-10-12T05:42:37;4.50;;;3.17;;
17773;SDS011;9011;33.236;-97.118;2022-10-12T05:45:05;3.22;;;2.70;;
17773;SDS011;9011;33.236;-97.118;2022-10-12T05:47:34;4.07;;;2.95;;
17773;SDS011;9011;33.236;-97.118;2022-10-12T05:50:02;2.92;;;2.72;;
17773;SDS011;9011;33.236;-97.118;2022-10-12T05:52:31;5.45;;;2.83;;
17773;SDS011;9011;33.236;-97.118;2022-10-12T05:55:00;2.85;;;2.20;;
17773;SDS011;9011;33.236;-97.118;2022-10-12T05:57:30;4.22;;;2.72;;
17773;SDS011;9011;33.236;-97.118;2022-10-12T05:59:58;3.95;;;2.40;;
17773;SDS011;9011;33.236;-97.118;2022-10-12T06:02:27;4.57;;;2.90;;
17773;SDS011;9011;33.236;-97.118;2022-10-12T06:04:55;3.33;;;2.45;;
17773;SDS011;9011;33.236;-97.118;2022-10-12T06:07:23;4.05;;;2.85;;
17773;SDS011;9011;33.236;-97.118;2022-10-12T06:09:51;3.97;;;2.78;;
17773;SDS011;9011;33.236;-97.118;2022-10-12T06:12:20;4.63;;;3.17;;
17773;SDS011;9011;33.236;-97.118;2022-10-12T06:14:50;4.82;;;2.70;;
17773;SDS011;9011;33.236;-97.118;2022-10-12T06:17:18;4.80;;;2.63;;
17773;SDS011;9011;33.236;-97.118;2022-10-12T06:19:46;6.80;;;2.67;;
17773;SDS011;9011;33.236;-97.118;2022-10-12T06:22:14;2.83;;;2.58;;
17773;SDS011;9011;33.236;-97.118;2022-10-12T06:24:43;3.95;;;2.85;;
17773;SDS011;9011;33.236;-97.118;2022-10-12T06:27:11;4.30;;;3.05;;
17773;SDS011;9011;33.236;-97.118;2022-10-12T06:29:41;4.10;;;2.75;;
17773;SDS011;9011;33.236;-97.118;2022-10-12T06:32:12;4.32;;;2.95;;
17773;SDS011;9011;33.236;-97.118;2022-10-12T06:34:40;4.40;;;2.63;;
17773;SDS011;9011;33.236;-97.118;2022-10-12T06:37:08;4.03;;;2.75;;
17773;SDS011;9011;33.236;-97.118;2022-10-12T06:39:36;4.85;;;3.05;;
17773;SDS011;9011;33.236;-97.118;2022-10-12T06:42:05;3.75;;;3.00;;
17773;SDS011;9011;33.236;-97.118;2022-10-12T06:44:34;4.78;;;3.00;;
17773;SDS011;9011;33.236;-97.118;2022-10-12T06:47:03;4.28;;;2.90;;
17773;SDS011;9011;33.236;-97.118;2022-10-12T06:49:33;3.70;;;3.00;;
17773;SDS011;9011;33.236;-97.118;2022-10-12T06:52:01;3.97;;;3.13;;
17773;SDS011;9011;33.236;-97.118;2022-10-12T06:54:29;3.33;;;2.88;;
17773;SDS011;9011;33.236;-97.118;2022-10-12T06:56:58;4.45;;;3.05;;
17773;SDS011;9011;33.236;-97.118;2022-10-12T06:59:26;3.63;;;3.17;;
17773;SDS011;9011;33.236;-97.118;2022-10-12T07:01:55;6.20;;;3.10;;
17773;SDS011;9011;33.236;-97.118;2022-10-12T07:04:23;3.97;;;3.13;;
17773;SDS011;9011;33.236;-97.118;2022-10-12T07:06:53;3.40;;;3.10;;
17773;SDS011;9011;33.236;-97.118;2022-10-12T07:09:21;4.63;;;3.10;;
17773;SDS011;9011;33.236;-97.118;2022-10-12T07:11:49;4.75;;;2.92;;
17773;SDS011;9011;33.236;-97.118;2022-10-12T07:14:18;4.57;;;3.08;;
17773;SDS011;9011;33.236;-97.118;2022-10-12T07:16:47;4.63;;;2.97;;
17773;SDS011;9011;33.236;-97.118;2022-10-12T07:19:15;3.40;;;2.92;;
17773;SDS011;9011;33.236;-97.118;2022-10-12T07:21:43;4.45;;;3.35;;
17773;SDS011;9011;33.236;-97.118;2022-10-12T07:24:13;3.85;;;3.30;;
17773;SDS011;9011;33.236;-97.118;2022-10-12T07:26:42;6.50;;;3.10;;
17773;SDS011;9011;33.236;-97.118;2022-10-12T07:29:10;4.55;;;3.40;;
17773;SDS011;9011;33.236;-97.118;2022-10-12T07:31:38;3.42;;;3.10;;
17773;SDS011;9011;33.236;-97.118;2022-10-12T07:34:07;5.65;;;3.35;;
17773;SDS011;9011;33.236;-97.118;2022-10-12T07:36:35;4.55;;;3.03;;
17773;SDS011;9011;33.236;-97.118;2022-10-12T07:39:05;3.20;;;2.90;;
17773;SDS011;9011;33.236;-97.118;2022-10-12T07:41:34;6.70;;;2.78;;
17773;SDS011;9011;33.236;-97.118;2022-10-12T07:44:03;3.50;;;2.92;;
17773;SDS011;9011;33.236;-97.118;2022-10-12T07:46:31;4.07;;;3.08;;
17773;SDS011;9011;33.236;-97.118;2022-10-12T07:49:00;7.38;;;3.85;;
17773;SDS011;9011;33.236;-97.118;2022-10-12T07:51:28;3.22;;;2.92;;
17773;SDS011;9011;33.236;-97.118;2022-10-12T07:53:56;3.88;;;2.72;;
17773;SDS011;9011;33.236;-97.118;2022-10-12T07:56:25;5.18;;;3.03;;
17773;SDS011;9011;33.236;-97.118;2022-10-12T07:58:55;3.45;;;2.78;;
17773;SDS011;9011;33.236;-97.118;2022-10-12T08:01:24;4.18;;;2.80;;
17773;SDS011;9011;33.236;-97.118;2022-10-12T08:03:55;4.40;;;3.13;;
17773;SDS011;9011;33.236;-97.118;2022-10-12T08:06:25;6.25;;;3.40;;
17773;SDS011;9011;33.236;-97.118;2022-10-12T08:08:56;5.00;;;2.78;;
17773;SDS011;9011;33.236;-97.118;2022-10-12T08:11:25;3.13;;;2.42;;
17773;SDS011;9011;33.236;-97.118;2022-10-12T08:13:55;4.45;;;2.97;;
17773;SDS011;9011;33.236;-97.118;2022-10-12T08:16:23;5.78;;;3.03;;
17773;SDS011;9011;33.236;-97.118;2022-10-12T08:18:52;7.38;;;3.45;;
17773;SDS011;9011;33.236;-97.118;2022-10-12T08:21:20;3.40;;;3.10;;
17773;SDS011;9011;33.236;-97.118;2022-10-12T08:23:48;4.45;;;2.90;;
17773;SDS011;9011;33.236;-97.118;2022-10-12T08:26:17;3.20;;;2.75;;
17773;SDS011;9011;33.236;-97.118;2022-10-12T08:28:45;4.85;;;3.10;;
17773;SDS011;9011;33.236;-97.118;2022-10-12T08:31:15;3.60;;;2.90;;
17773;SDS011;9011;33.236;-97.118;2022-10-12T08:33:44;4.20;;;2.60;;
17773;SDS011;9011;33.236;-97.118;2022-10-12T08:36:12;5.90;;;2.95;;
17773;SDS011;9011;33.236;-97.118;2022-10-12T08:38:40;2.72;;;2.53;;
17773;SDS011;9011;33.236;-97.118;2022-10-12T08:41:12;3.05;;;2.50;;
17773;SDS011;9011;33.236;-97.118;2022-10-12T08:44:02;3.78;;;2.92;;
17773;SDS011;9011;33.236;-97.118;2022-10-12T08:46:39;3.30;;;2.85;;
17773;SDS011;9011;33.236;-97.118;2022-10-12T08:49:10;3.75;;;3.22;;
17773;SDS011;9011;33.236;-97.118;2022-10-12T08:51:43;5.95;;;2.92;;
17773;SDS011;9011;33.236;-97.118;2022-10-12T08:54:16;4.43;;;2.70;;
17773;SDS011;9011;33.236;-97.118;2022-10-12T08:56:46;3.20;;;2.60;;
17773;SDS011;9011;33.236;-97.118;2022-10-12T08:59:16;2.72;;;2.50;;
17773;SDS011;9011;33.236;-97.118;2022-10-12T09:01:51;4.25;;;3.13;;
17773;SDS011;9011;33.236;-97.118;2022-10-12T09:04:35;5.60;;;2.67;;
17773;SDS011;9011;33.236;-97.118;2022-10-12T09:07:13;5.05;;;2.97;;
17773;SDS011;9011;33.236;-97.118;2022-10-12T09:09:49;4.68;;;2.95;;
17773;SDS011;9011;33.236;-97.118;2022-10-12T09:12:30;3.30;;;2.97;;
17773;SDS011;9011;33.236;-97.118;2022-10-12T09:15:09;6.30;;;2.78;;
17773;SDS011;9011;33.236;-97.118;2022-10-12T09:17:45;5.93;;;3.05;;
17773;SDS011;9011;33.236;-97.118;2022-10-12T09:20:18;5.57;;;3.20;;
17773;SDS011;9011;33.236;-97.118;2022-10-12T09:22:48;4.03;;;2.72;;
17773;SDS011;9011;33.236;-97.118;2022-10-12T09:25:22;5.43;;;2.83;;
17773;SDS011;9011;33.236;-97.118;2022-10-12T09:27:52;5.57;;;2.78;;
17773;SDS011;9011;33.236;-97.118;2022-10-12T09:30:22;3.65;;;2.97;;
17773;SDS011;9011;33.236;-97.118;2022-10-12T09:33:02;6.97;;;3.40;;
17773;SDS011;9011;33.236;-97.118;2022-10-12T09:35:36;3.72;;;2.90;;
17773;SDS011;9011;33.236;-97.118;2022-10-12T09:38:11;3.47;;;2.67;;
17773;SDS011;9011;33.236;-97.118;2022-10-12T09:40:40;3.88;;;2.65;;
17773;SDS011;9011;33.236;-97.118;2022-10-12T09:43:08;5.68;;;2.83;;
17773;SDS011;9011;33.236;-97.118;2022-10-12T09:45:37;5.45;;;2.80;;
17773;SDS011;9011;33.236;-97.118;2022-10-12T09:48:14;4.45;;;2.70;;
17773;SDS011;9011;33.236;-97.118;2022-10-12T09:50:47;4.43;;;2.60;;
17773;SDS011;9011;33.236;-97.118;2022-10-12T09:53:19;4.60;;;2.97;;
17773;SDS011;9011;33.236;-97.118;2022-10-12T09:55:55;4.80;;;2.80;;
17773;SDS011;9011;33.236;-97.118;2022-10-12T09:58:28;3.42;;;2.75;;
17773;SDS011;9011;33.236;-97.118;2022-10-12T10:01:16;4.60;;;2.38;;
17773;SDS011;9011;33.236;-97.118;2022-10-12T10:04:04;6.55;;;3.05;;
17773;SDS011;9011;33.236;-97.118;2022-10-12T10:06:35;4.32;;;2.58;;
17773;SDS011;9011;33.236;-97.118;2022-10-12T10:09:04;4.80;;;2.72;;
17773;SDS011;9011;33.236;-97.118;2022-10-12T10:11:37;4.65;;;2.85;;
17773;SDS011;9011;33.236;-97.118;2022-10-12T10:14:08;4.55;;;2.67;;
17773;SDS011;9011;33.236;-97.118;2022-10-12T10:16:45;2.95;;;2.50;;
17773;SDS011;9011;33.236;-97.118;2022-10-12T10:19:17;2.88;;;2.50;;
17773;SDS011;9011;33.236;-97.118;2022-10-12T10:21:50;3.05;;;2.70;;
17773;SDS011;9011;33.236;-97.118;2022-10-12T10:24:23;2.78;;;2.47;;
17773;SDS011;9011;33.236;-97.118;2022-10-12T10:26:54;4.22;;;2.42;;
17773;SDS011;9011;33.236;-97.118;2022-10-12T10:29:33;3.53;;;2.20;;
17773;SDS011;9011;33.236;-97.118;2022-10-12T10:32:17;4.13;;;2.30;;
17773;SDS011;9011;33.236;-97.118;2022-10-12T10:35:02;2.97;;;2.20;;
17773;SDS011;9011;33.236;-97.118;2022-10-12T10:37:32;3.75;;;2.20;;
17773;SDS011;9011;33.236;-97.118;2022-10-12T10:40:01;3.85;;;2.22;;
17773;SDS011;9011;33.236;-97.118;2022-10-12T10:42:31;3.15;;;2.53;;
17773;SDS011;9011;33.236;-97.118;2022-10-12T10:45:00;3.20;;;2.30;;
17773;SDS011;9011;33.236;-97.118;2022-10-12T10:47:31;3.15;;;2.20;;
17773;SDS011;9011;33.236;-97.118;2022-10-12T10:50:19;4.30;;;2.13;;
17773;SDS011;9011;33.236;-97.118;2022-10-12T10:52:52;3.00;;;2.38;;
17773;SDS011;9011;33.236;-97.118;2022-10-12T10:55:24;3.00;;;2.10;;
17773;SDS011;9011;33.236;-97.118;2022-10-12T10:58:01;3.92;;;2.22;;
17773;SDS011;9011;33.236;-97.118;2022-10-12T11:00:32;2.58;;;2.08;;
17773;SDS011;9011;33.236;-97.118;2022-10-12T11:03:03;4.18;;;2.40;;
17773;SDS011;9011;33.236;-97.118;2022-10-12T11:05:39;6.85;;;2.88;;
17773;SDS011;9011;33.236;-97.118;2022-10-12T11:08:11;3.47;;;2.50;;
17773;SDS011;9011;33.236;-97.118;2022-10-12T11:10:45;3.33;;;2.35;;
17773;SDS011;9011;33.236;-97.118;2022-10-12T11:13:19;4.50;;;2.38;;
17773;SDS011;9011;33.236;-97.118;2022-10-12T11:15:51;4.05;;;2.53;;
17773;SDS011;9011;33.236;-97.118;2022-10-12T11:18:26;3.72;;;2.28;;
17773;SDS011;9011;33.236;-97.118;2022-10-12T11:21:04;5.10;;;2.50;;
17773;SDS011;9011;33.236;-97.118;2022-10-12T11:23:40;4.22;;;2.42;;
17773;SDS011;9011;33.236;-97.118;2022-10-12T11:26:14;6.38;;;2.58;;
17773;SDS011;9011;33.236;-97.118;2022-10-12T11:28:49;4.38;;;2.40;;
17773;SDS011;9011;33.236;-97.118;2022-10-12T11:31:20;4.93;;;2.63;;
17773;SDS011;9011;33.236;-97.118;2022-10-12T11:33:50;2.97;;;2.22;;
17773;SDS011;9011;33.236;-97.118;2022-10-12T11:36:23;5.28;;;2.30;;
17773;SDS011;9011;33.236;-97.118;2022-10-12T11:38:56;4.53;;;2.35;;
17773;SDS011;9011;33.236;-97.118;2022-10-12T11:41:30;7.30;;;3.03;;
17773;SDS011;9011;33.236;-97.118;2022-10-12T11:44:04;2.38;;;2.00;;
17773;SDS011;9011;33.236;-97.118;2022-10-12T11:46:41;4.85;;;2.40;;
17773;SDS011;9011;33.236;-97.118;2022-10-12T11:49:13;5.00;;;2.42;;
17773;SDS011;9011;33.236;-97.118;2022-10-12T11:51:48;5.47;;;2.80;;
17773;SDS011;9011;33.236;-97.118;2022-10-12T11:54:22;3.85;;;2.22;;
17773;SDS011;9011;33.236;-97.118;2022-10-12T11:56:57;3.75;;;2.30;;
17773;SDS011;9011;33.236;-97.118;2022-10-12T11:59:31;2.88;;;2.40;;
17773;SDS011;9011;33.236;-97.118;2022-10-12T12:02:09;5.40;;;2.20;;
17773;SDS011;9011;33.236;-97.118;2022-10-12T12:04:44;4.78;;;2.22;;
17773;SDS011;9011;33.236;-97.118;2022-10-12T12:13:22;3.88;;;2.05;;
17773;SDS011;9011;33.236;-97.118;2022-10-12T12:22:12;5.05;;;2.72;;
17773;SDS011;9011;33.236;-97.118;2022-10-12T12:25:01;3.10;;;2.22;;
17773;SDS011;9011;33.236;-97.118;2022-10-12T12:27:49;5.28;;;2.38;;
17773;SDS011;9011;33.236;-97.118;2022-10-12T12:33:21;5.55;;;2.50;;
17773;SDS011;9011;33.236;-97.118;2022-10-12T12:35:55;5.55;;;2.35;;
17773;SDS011;9011;33.236;-97.118;2022-10-12T12:38:25;4.28;;;2.38;;
17773;SDS011;9011;33.236;-97.118;2022-10-12T12:41:00;3.70;;;2.40;;
17773;SDS011;9011;33.236;-97.118;2022-10-12T12:43:36;4.70;;;2.95;;
17773;SDS011;9011;33.236;-97.118;2022-10-12T12:47:13;9.95;;;2.58;;
17773;SDS011;9011;33.236;-97.118;2022-10-12T12:49:37;6.53;;;2.67;;
17773;SDS011;9011;33.236;-97.118;2022-10-12T12:52:12;3.92;;;2.40;;
17773;SDS011;9011;33.236;-97.118;2022-10-12T12:54:53;5.75;;;3.13;;
17773;SDS011;9011;33.236;-97.118;2022-10-12T12:57:45;6.15;;;2.88;;
17773;SDS011;9011;33.236;-97.118;2022-10-12T13:00:25;8.23;;;2.80;;
17773;SDS011;9011;33.236;-97.118;2022-10-12T13:06:14;4.65;;;2.45;;
17773;SDS011;9011;33.236;-97.118;2022-10-12T13:09:16;5.13;;;2.33;;
17773;SDS011;9011;33.236;-97.118;2022-10-12T13:12:17;2.78;;;2.30;;
17773;SDS011;9011;33.236;-97.118;2022-10-12T13:21:06;5.47;;;2.50;;
17773;SDS011;9011;33.236;-97.118;2022-10-12T13:23:38;6.13;;;2.40;;
17773;SDS011;9011;33.236;-97.118;2022-10-12T13:26:08;3.33;;;2.30;;
17773;SDS011;9011;33.236;-97.118;2022-10-12T13:28:38;4.88;;;2.20;;
17773;SDS011;9011;33.236;-97.118;2022-10-12T13:31:12;5.22;;;3.20;;
17773;SDS011;9011;33.236;-97.118;2022-10-12T13:33:44;7.03;;;2.83;;
17773;SDS011;9011;33.236;-97.118;2022-10-12T13:36:18;2.47;;;2.05;;
17773;SDS011;9011;33.236;-97.118;2022-10-12T13:38:53;3.65;;;2.60;;
17773;SDS011;9011;33.236;-97.118;2022-10-12T13:41:23;5.35;;;2.42;;
17773;SDS011;9011;33.236;-97.118;2022-10-12T13:43:56;4.30;;;2.42;;
17773;SDS011;9011;33.236;-97.118;2022-10-12T13:46:37;6.93;;;2.47;;
17773;SDS011;9011;33.236;-97.118;2022-10-12T13:49:11;6.35;;;2.38;;
17773;SDS011;9011;33.236;-97.118;2022-10-12T13:51:41;3.15;;;2.33;;
17773;SDS011;9011;33.236;-97.118;2022-10-12T13:54:14;4.90;;;2.28;;
17773;SDS011;9011;33.236;-97.118;2022-10-12T13:56:43;4.78;;;2.53;;
17773;SDS011;9011;33.236;-97.118;2022-10-12T13:59:14;4.75;;;2.55;;
17773;SDS011;9011;33.236;-97.118;2022-10-12T14:01:54;2.63;;;2.08;;
17773;SDS011;9011;33.236;-97.118;2022-10-12T14:04:26;4.82;;;2.53;;
17773;SDS011;9011;33.236;-97.118;2022-10-12T14:06:58;4.00;;;2.17;;
17773;SDS011;9011;33.236;-97.118;2022-10-12T14:09:32;4.80;;;2.30;;
17773;SDS011;9011;33.236;-97.118;2022-10-12T14:12:07;6.25;;;2.42;;
17773;SDS011;9011;33.236;-97.118;2022-10-12T14:14:37;3.08;;;2.30;;
17773;SDS011;9011;33.236;-97.118;2022-10-12T14:17:13;5.85;;;2.47;;
17773;SDS011;9011;33.236;-97.118;2022-10-12T14:19:42;4.22;;;2.13;;
17773;SDS011;9011;33.236;-97.118;2022-10-12T14:22:12;3.65;;;2.13;;
17773;SDS011;9011;33.236;-97.118;2022-10-12T14:24:47;4.28;;;2.28;;
17773;SDS011;9011;33.236;-97.118;2022-10-12T14:27:20;4.97;;;2.28;;
17773;SDS011;9011;33.236;-97.118;2022-10-12T14:29:52;5.10;;;2.08;;
17773;SDS011;9011;33.236;-97.118;2022-10-12T14:32:38;3.35;;;2.10;;
17773;SDS011;9011;33.236;-97.118;2022-10-12T14:35:09;5.13;;;1.83;;
17773;SDS011;9011;33.236;-97.118;2022-10-12T14:37:40;4.85;;;1.95;;
17773;SDS011;9011;33.236;-97.118;2022-10-12T14:40:25;4.15;;;2.10;;
17773;SDS011;9011;33.236;-97.118;2022-10-12T14:43:04;3.70;;;2.03;;
17773;SDS011;9011;33.236;-97.118;2022-10-12T14:45:34;3.17;;;1.98;;
17773;SDS011;9011;33.236;-97.118;2022-10-12T14:48:04;3.50;;;1.95;;
17773;SDS011;9011;33.236;-97.118;2022-10-12T14:50:39;4.13;;;1.88;;
17773;SDS011;9011;33.236;-97.118;2022-10-12T14:53:09;3.35;;;2.13;;
17773;SDS011;9011;33.236;-97.118;2022-10-12T14:55:39;4.20;;;2.00;;
17773;SDS011;9011;33.236;-97.118;2022-10-12T14:58:09;4.35;;;1.90;;
17773;SDS011;9011;33.236;-97.118;2022-10-12T15:00:41;3.58;;;1.63;;
17773;SDS011;9011;33.236;-97.118;2022-10-12T15:03:12;2.83;;;1.48;;
17773;SDS011;9011;33.236;-97.118;2022-10-12T15:05:42;5.55;;;1.77;;
17773;SDS011;9011;33.236;-97.118;2022-10-12T15:08:10;2.97;;;1.65;;
17773;SDS011;9011;33.236;-97.118;2022-10-12T15:10:38;1.75;;;1.65;;
17773;SDS011;9011;33.236;-97.118;2022-10-12T15:13:07;4.97;;;1.92;;
17773;SDS011;9011;33.236;-97.118;2022-10-12T15:15:40;4.55;;;2.15;;
17773;SDS011;9011;33.236;-97.118;2022-10-12T15:18:10;6.13;;;1.65;;
17773;SDS011;9011;33.236;-97.118;2022-10-12T15:20:40;3.45;;;2.10;;
17773;SDS011;9011;33.236;-97.118;2022-10-12T15:23:08;4.75;;;2.03;;
17773;SDS011;9011;33.236;-97.118;2022-10-12T15:25:38;4.25;;;2.28;;
17773;SDS011;9011;33.236;-97.118;2022-10-12T15:28:09;4.30;;;1.95;;
17773;SDS011;9011;33.236;-97.118;2022-10-12T15:30:37;3.53;;;1.67;;